sensor_id;sensor_type;location;lat;lon;timestamp;P1;durP1;ratioP1;P2;durP2;ratioP2
53666;SDS011;39568;51.026;5.468;2023-04-15T00:00:32;12.70;;;5.55;;
53666;SDS011;39568;51.026;5.468;2023-04-15T00:02:59;11.90;;;5.25;;
53666;SDS011;39568;51.026;5.468;2023-04-15T00:05:28;11.02;;;5.55;;
53666;SDS011;39568;51.026;5.468;2023-04-15T00:07:55;11.73;;;5.60;;
53666;SDS011;39568;51.026;5.468;2023-04-15T00:10:21;5.80;;;5.25;;
53666;SDS011;39568;51.026;5.468;2023-04-15T00:12:48;13.68;;;5.47;;
53666;SDS011;39568;51.026;5.468;2023-04-15T00:15:15;11.77;;;5.82;;
53666;SDS011;39568;51.026;5.468;2023-04-15T00:17:42;9.23;;;5.72;;
53666;SDS011;39568;51.026;5.468;2023-04-15T00:20:09;12.32;;;4.57;;
53666;SDS011;39568;51.026;5.468;2023-04-15T00:22:37;6.57;;;4.80;;
53666;SDS011;39568;51.026;5.468;2023-04-15T00:25:04;5.07;;;3.90;;
53666;SDS011;39568;51.026;5.468;2023-04-15T00:27:31;5.97;;;4.65;;
53666;SDS011;39568;51.026;5.468;2023-04-15T00:29:58;8.85;;;5.38;;
53666;SDS011;39568;51.026;5.468;2023-04-15T00:32:24;6.18;;;4.75;;
53666;SDS011;39568;51.026;5.468;2023-04-15T00:34:51;10.82;;;4.72;;
53666;SDS011;39568;51.026;5.468;2023-04-15T00:37:18;23.05;;;5.82;;
53666;SDS011;39568;51.026;5.468;2023-04-15T00:39:46;6.57;;;4.47;;
53666;SDS011;39568;51.026;5.468;2023-04-15T00:42:12;8.45;;;5.53;;
53666;SDS011;39568;51.026;5.468;2023-04-15T00:44:39;5.97;;;4.68;;
53666;SDS011;39568;51.026;5.468;2023-04-15T00:47:06;7.22;;;4.90;;
53666;SDS011;39568;51.026;5.468;2023-04-15T00:49:34;8.35;;;4.10;;
53666;SDS011;39568;51.026;5.468;2023-04-15T00:52:02;7.55;;;4.95;;
53666;SDS011;39568;51.026;5.468;2023-04-15T00:54:28;5.72;;;4.45;;
53666;SDS011;39568;51.026;5.468;2023-04-15T00:56:57;19.70;;;5.03;;
53666;SDS011;39568;51.026;5.468;2023-04-15T00:59:24;14.60;;;4.85;;
53666;SDS011;39568;51.026;5.468;2023-04-15T01:01:51;11.88;;;4.50;;
53666;SDS011;39568;51.026;5.468;2023-04-15T01:04:18;14.70;;;5.30;;
53666;SDS011;39568;51.026;5.468;2023-04-15T01:06:45;16.30;;;4.63;;
53666;SDS011;39568;51.026;5.468;2023-04-15T01:09:11;7.90;;;5.00;;
53666;SDS011;39568;51.026;5.468;2023-04-15T01:11:38;8.57;;;4.22;;
53666;SDS011;39568;51.026;5.468;2023-04-15T01:14:06;6.63;;;4.03;;
53666;SDS011;39568;51.026;5.468;2023-04-15T01:16:34;6.35;;;4.25;;
53666;SDS011;39568;51.026;5.468;2023-04-15T01:19:03;6.18;;;4.07;;
53666;SDS011;39568;51.026;5.468;2023-04-15T01:21:31;7.85;;;5.03;;
53666;SDS011;39568;51.026;5.468;2023-04-15T01:23:58;3.83;;;3.50;;
53666;SDS011;39568;51.026;5.468;2023-04-15T01:26:28;7.40;;;4.45;;
53666;SDS011;39568;51.026;5.468;2023-04-15T01:28:54;16.70;;;4.95;;
53666;SDS011;39568;51.026;5.468;2023-04-15T01:31:21;7.85;;;5.03;;
53666;SDS011;39568;51.026;5.468;2023-04-15T01:33:48;12.57;;;5.35;;
53666;SDS011;39568;51.026;5.468;2023-04-15T01:36:14;13.80;;;4.30;;
53666;SDS011;39568;51.026;5.468;2023-04-15T01:38:41;8.52;;;3.95;;
53666;SDS011;39568;51.026;5.468;2023-04-15T01:41:08;13.48;;;4.03;;
53666;SDS011;39568;51.026;5.468;2023-04-15T01:43:36;7.80;;;3.78;;
53666;SDS011;39568;51.026;5.468;2023-04-15T01:46:03;7.00;;;4.15;;
53666;SDS011;39568;51.026;5.468;2023-04-15T01:48:30;13.27;;;4.53;;
53666;SDS011;39568;51.026;5.468;2023-04-15T01:50:57;5.90;;;4.18;;
53666;SDS011;39568;51.026;5.468;2023-04-15T01:53:24;14.43;;;5.05;;
53666;SDS011;39568;51.026;5.468;2023-04-15T01:55:51;6.22;;;4.50;;
53666;SDS011;39568;51.026;5.468;2023-04-15T01:58:18;8.95;;;4.30;;
53666;SDS011;39568;51.026;5.468;2023-04-15T02:00:46;11.45;;;4.20;;
53666;SDS011;39568;51.026;5.468;2023-04-15T02:03:12;12.23;;;5.38;;
53666;SDS011;39568;51.026;5.468;2023-04-15T02:05:39;8.60;;;4.75;;
53666;SDS011;39568;51.026;5.468;2023-04-15T02:08:06;7.05;;;4.07;;
53666;SDS011;39568;51.026;5.468;2023-04-15T02:10:33;7.25;;;4.40;;
53666;SDS011;39568;51.026;5.468;2023-04-15T02:12:59;11.43;;;4.75;;
53666;SDS011;39568;51.026;5.468;2023-04-15T02:15:26;7.93;;;4.53;;
53666;SDS011;39568;51.026;5.468;2023-04-15T02:17:55;10.93;;;4.25;;
53666;SDS011;39568;51.026;5.468;2023-04-15T02:20:21;7.28;;;4.40;;
53666;SDS011;39568;51.026;5.468;2023-04-15T02:22:48;13.98;;;5.18;;
53666;SDS011;39568;51.026;5.468;2023-04-15T02:25:15;7.20;;;4.53;;
53666;SDS011;39568;51.026;5.468;2023-04-15T02:27:42;10.27;;;5.00;;
53666;SDS011;39568;51.026;5.468;2023-04-15T02:30:09;14.13;;;4.47;;
53666;SDS011;39568;51.026;5.468;2023-04-15T02:32:36;7.72;;;3.80;;
53666;SDS011;39568;51.026;5.468;2023-04-15T02:35:05;7.80;;;3.97;;
53666;SDS011;39568;51.026;5.468;2023-04-15T02:37:34;11.65;;;3.50;;
53666;SDS011;39568;51.026;5.468;2023-04-15T02:40:05;7.70;;;3.88;;
53666;SDS011;39568;51.026;5.468;2023-04-15T02:42:33;16.00;;;4.18;;
53666;SDS011;39568;51.026;5.468;2023-04-15T02:45:00;6.20;;;3.53;;
53666;SDS011;39568;51.026;5.468;2023-04-15T02:47:27;6.63;;;3.95;;
53666;SDS011;39568;51.026;5.468;2023-04-15T02:49:53;7.40;;;3.90;;
53666;SDS011;39568;51.026;5.468;2023-04-15T02:52:22;8.95;;;3.80;;
53666;SDS011;39568;51.026;5.468;2023-04-15T02:54:48;5.70;;;4.13;;
53666;SDS011;39568;51.026;5.468;2023-04-15T02:57:15;12.88;;;3.92;;
53666;SDS011;39568;51.026;5.468;2023-04-15T02:59:42;9.98;;;4.18;;
53666;SDS011;39568;51.026;5.468;2023-04-15T03:02:09;10.77;;;4.20;;
53666;SDS011;39568;51.026;5.468;2023-04-15T03:04:35;7.90;;;3.72;;
53666;SDS011;39568;51.026;5.468;2023-04-15T03:07:02;10.68;;;4.38;;
53666;SDS011;39568;51.026;5.468;2023-04-15T03:09:30;12.07;;;4.60;;
53666;SDS011;39568;51.026;5.468;2023-04-15T03:11:57;6.22;;;4.03;;
53666;SDS011;39568;51.026;5.468;2023-04-15T03:14:23;17.35;;;4.75;;
53666;SDS011;39568;51.026;5.468;2023-04-15T03:16:51;13.43;;;5.65;;
53666;SDS011;39568;51.026;5.468;2023-04-15T03:19:17;14.02;;;5.07;;
53666;SDS011;39568;51.026;5.468;2023-04-15T03:21:44;14.27;;;4.32;;
53666;SDS011;39568;51.026;5.468;2023-04-15T03:24:11;14.88;;;5.53;;
53666;SDS011;39568;51.026;5.468;2023-04-15T03:26:39;10.50;;;5.03;;
53666;SDS011;39568;51.026;5.468;2023-04-15T03:29:05;17.15;;;5.55;;
53666;SDS011;39568;51.026;5.468;2023-04-15T03:31:32;15.73;;;5.28;;
53666;SDS011;39568;51.026;5.468;2023-04-15T03:33:59;15.82;;;5.10;;
53666;SDS011;39568;51.026;5.468;2023-04-15T03:36:25;9.77;;;5.30;;
53666;SDS011;39568;51.026;5.468;2023-04-15T03:38:55;21.35;;;6.43;;
53666;SDS011;39568;51.026;5.468;2023-04-15T03:41:22;15.32;;;6.38;;
53666;SDS011;39568;51.026;5.468;2023-04-15T03:43:50;14.55;;;6.00;;
53666;SDS011;39568;51.026;5.468;2023-04-15T03:46:34;19.08;;;5.88;;
53666;SDS011;39568;51.026;5.468;2023-04-15T03:49:01;13.38;;;5.70;;
53666;SDS011;39568;51.026;5.468;2023-04-15T03:51:28;11.13;;;5.80;;
53666;SDS011;39568;51.026;5.468;2023-04-15T03:53:55;13.13;;;6.35;;
53666;SDS011;39568;51.026;5.468;2023-04-15T03:56:22;14.45;;;5.95;;
53666;SDS011;39568;51.026;5.468;2023-04-15T03:58:51;18.55;;;5.40;;
53666;SDS011;39568;51.026;5.468;2023-04-15T04:01:19;10.82;;;5.18;;
53666;SDS011;39568;51.026;5.468;2023-04-15T04:03:46;26.23;;;5.93;;
53666;SDS011;39568;51.026;5.468;2023-04-15T04:06:12;14.40;;;4.75;;
53666;SDS011;39568;51.026;5.468;2023-04-15T04:08:40;8.68;;;5.32;;
53666;SDS011;39568;51.026;5.468;2023-04-15T04:11:07;14.32;;;5.60;;
53666;SDS011;39568;51.026;5.468;2023-04-15T04:13:34;14.48;;;5.03;;
53666;SDS011;39568;51.026;5.468;2023-04-15T04:16:12;11.10;;;5.40;;
53666;SDS011;39568;51.026;5.468;2023-04-15T04:18:39;18.05;;;4.63;;
53666;SDS011;39568;51.026;5.468;2023-04-15T04:21:09;11.23;;;5.03;;
53666;SDS011;39568;51.026;5.468;2023-04-15T04:23:35;20.52;;;4.60;;
53666;SDS011;39568;51.026;5.468;2023-04-15T04:26:02;13.57;;;5.07;;
53666;SDS011;39568;51.026;5.468;2023-04-15T04:28:29;18.30;;;5.30;;
53666;SDS011;39568;51.026;5.468;2023-04-15T04:30:55;13.98;;;4.20;;
53666;SDS011;39568;51.026;5.468;2023-04-15T04:33:23;9.00;;;5.25;;
53666;SDS011;39568;51.026;5.468;2023-04-15T04:35:50;14.27;;;4.25;;
53666;SDS011;39568;51.026;5.468;2023-04-15T04:38:17;11.15;;;5.15;;
53666;SDS011;39568;51.026;5.468;2023-04-15T04:40:43;13.52;;;5.00;;
53666;SDS011;39568;51.026;5.468;2023-04-15T04:43:10;13.30;;;5.38;;
53666;SDS011;39568;51.026;5.468;2023-04-15T04:45:38;12.20;;;5.22;;
53666;SDS011;39568;51.026;5.468;2023-04-15T04:48:06;7.97;;;4.80;;
53666;SDS011;39568;51.026;5.468;2023-04-15T04:50:35;11.20;;;5.28;;
53666;SDS011;39568;51.026;5.468;2023-04-15T04:53:02;11.85;;;5.45;;
53666;SDS011;39568;51.026;5.468;2023-04-15T04:55:29;80.30;;;35.08;;
53666;SDS011;39568;51.026;5.468;2023-04-15T04:57:56;44.80;;;19.92;;
53666;SDS011;39568;51.026;5.468;2023-04-15T05:00:22;23.05;;;8.80;;
53666;SDS011;39568;51.026;5.468;2023-04-15T05:02:49;11.88;;;5.13;;
53666;SDS011;39568;51.026;5.468;2023-04-15T05:05:16;9.95;;;4.68;;
53666;SDS011;39568;51.026;5.468;2023-04-15T05:07:44;16.98;;;5.22;;
53666;SDS011;39568;51.026;5.468;2023-04-15T05:10:11;14.13;;;5.63;;
53666;SDS011;39568;51.026;5.468;2023-04-15T05:12:39;17.65;;;3.80;;
53666;SDS011;39568;51.026;5.468;2023-04-15T05:15:06;15.63;;;4.40;;
53666;SDS011;39568;51.026;5.468;2023-04-15T05:17:34;13.10;;;5.00;;
53666;SDS011;39568;51.026;5.468;2023-04-15T05:20:00;19.70;;;5.35;;
53666;SDS011;39568;51.026;5.468;2023-04-15T05:22:27;11.52;;;4.95;;
53666;SDS011;39568;51.026;5.468;2023-04-15T05:24:56;9.63;;;5.13;;
53666;SDS011;39568;51.026;5.468;2023-04-15T05:27:22;20.98;;;6.88;;
53666;SDS011;39568;51.026;5.468;2023-04-15T05:29:49;18.50;;;6.15;;
53666;SDS011;39568;51.026;5.468;2023-04-15T05:32:16;7.07;;;5.22;;
53666;SDS011;39568;51.026;5.468;2023-04-15T05:34:43;14.55;;;6.72;;
53666;SDS011;39568;51.026;5.468;2023-04-15T05:37:09;10.68;;;4.97;;
53666;SDS011;39568;51.026;5.468;2023-04-15T05:39:36;16.13;;;5.55;;
53666;SDS011;39568;51.026;5.468;2023-04-15T05:42:04;16.52;;;5.70;;
53666;SDS011;39568;51.026;5.468;2023-04-15T05:44:31;13.23;;;5.93;;
53666;SDS011;39568;51.026;5.468;2023-04-15T05:46:57;11.50;;;6.15;;
53666;SDS011;39568;51.026;5.468;2023-04-15T05:49:24;16.13;;;7.47;;
53666;SDS011;39568;51.026;5.468;2023-04-15T05:51:51;18.75;;;10.13;;
53666;SDS011;39568;51.026;5.468;2023-04-15T05:54:18;14.23;;;7.80;;
53666;SDS011;39568;51.026;5.468;2023-04-15T05:56:46;21.27;;;8.93;;
53666;SDS011;39568;51.026;5.468;2023-04-15T05:59:14;13.18;;;8.13;;
53666;SDS011;39568;51.026;5.468;2023-04-15T06:01:40;8.63;;;7.82;;
53666;SDS011;39568;51.026;5.468;2023-04-15T06:04:07;15.45;;;7.68;;
53666;SDS011;39568;51.026;5.468;2023-04-15T06:06:35;10.32;;;6.85;;
53666;SDS011;39568;51.026;5.468;2023-04-15T06:09:02;18.17;;;7.55;;
53666;SDS011;39568;51.026;5.468;2023-04-15T06:11:29;12.93;;;7.20;;
53666;SDS011;39568;51.026;5.468;2023-04-15T06:13:56;17.85;;;7.05;;
53666;SDS011;39568;51.026;5.468;2023-04-15T06:16:24;14.05;;;8.05;;
53666;SDS011;39568;51.026;5.468;2023-04-15T06:18:51;22.52;;;8.95;;
53666;SDS011;39568;51.026;5.468;2023-04-15T06:21:18;21.10;;;8.15;;
53666;SDS011;39568;51.026;5.468;2023-04-15T06:23:44;12.73;;;7.97;;
53666;SDS011;39568;51.026;5.468;2023-04-15T06:26:11;15.68;;;9.38;;
53666;SDS011;39568;51.026;5.468;2023-04-15T06:28:38;19.08;;;9.45;;
53666;SDS011;39568;51.026;5.468;2023-04-15T06:31:04;17.25;;;9.55;;
53666;SDS011;39568;51.026;5.468;2023-04-15T06:33:32;17.20;;;9.00;;
53666;SDS011;39568;51.026;5.468;2023-04-15T06:35:59;14.45;;;8.85;;
53666;SDS011;39568;51.026;5.468;2023-04-15T06:38:26;18.65;;;9.68;;
53666;SDS011;39568;51.026;5.468;2023-04-15T06:40:53;13.57;;;8.02;;
53666;SDS011;39568;51.026;5.468;2023-04-15T06:43:19;16.85;;;10.10;;
53666;SDS011;39568;51.026;5.468;2023-04-15T06:45:46;13.25;;;9.00;;
53666;SDS011;39568;51.026;5.468;2023-04-15T06:48:13;13.13;;;8.35;;
53666;SDS011;39568;51.026;5.468;2023-04-15T06:50:41;22.88;;;8.95;;
53666;SDS011;39568;51.026;5.468;2023-04-15T06:53:07;20.15;;;7.20;;
53666;SDS011;39568;51.026;5.468;2023-04-15T06:55:34;19.00;;;8.52;;
53666;SDS011;39568;51.026;5.468;2023-04-15T06:58:01;17.73;;;8.68;;
53666;SDS011;39568;51.026;5.468;2023-04-15T07:00:27;15.13;;;8.57;;
53666;SDS011;39568;51.026;5.468;2023-04-15T07:02:54;19.65;;;8.43;;
53666;SDS011;39568;51.026;5.468;2023-04-15T07:05:21;17.08;;;8.70;;
53666;SDS011;39568;51.026;5.468;2023-04-15T07:07:50;15.15;;;8.90;;
53666;SDS011;39568;51.026;5.468;2023-04-15T07:10:17;14.38;;;8.98;;
53666;SDS011;39568;51.026;5.468;2023-04-15T07:12:44;18.02;;;9.25;;
53666;SDS011;39568;51.026;5.468;2023-04-15T07:15:11;18.08;;;9.10;;
53666;SDS011;39568;51.026;5.468;2023-04-15T07:17:37;14.25;;;9.38;;
53666;SDS011;39568;51.026;5.468;2023-04-15T07:20:04;16.00;;;8.48;;
53666;SDS011;39568;51.026;5.468;2023-04-15T07:22:32;20.92;;;9.77;;
53666;SDS011;39568;51.026;5.468;2023-04-15T07:25:00;17.65;;;10.60;;
53666;SDS011;39568;51.026;5.468;2023-04-15T07:27:27;16.85;;;9.73;;
53666;SDS011;39568;51.026;5.468;2023-04-15T07:29:53;16.40;;;10.32;;
53666;SDS011;39568;51.026;5.468;2023-04-15T07:32:20;15.63;;;9.63;;
53666;SDS011;39568;51.026;5.468;2023-04-15T07:34:47;16.27;;;9.50;;
53666;SDS011;39568;51.026;5.468;2023-04-15T07:37:14;25.45;;;9.18;;
53666;SDS011;39568;51.026;5.468;2023-04-15T07:39:40;16.63;;;9.32;;
53666;SDS011;39568;51.026;5.468;2023-04-15T07:42:09;12.80;;;9.35;;
53666;SDS011;39568;51.026;5.468;2023-04-15T07:44:35;32.67;;;9.90;;
53666;SDS011;39568;51.026;5.468;2023-04-15T07:47:02;17.27;;;9.35;;
53666;SDS011;39568;51.026;5.468;2023-04-15T07:49:29;29.40;;;10.80;;
53666;SDS011;39568;51.026;5.468;2023-04-15T07:51:55;15.10;;;11.20;;
53666;SDS011;39568;51.026;5.468;2023-04-15T07:54:24;13.68;;;9.77;;
53666;SDS011;39568;51.026;5.468;2023-04-15T07:56:51;17.95;;;10.80;;
53666;SDS011;39568;51.026;5.468;2023-04-15T07:59:19;20.40;;;12.02;;
53666;SDS011;39568;51.026;5.468;2023-04-15T08:01:46;15.35;;;10.95;;
53666;SDS011;39568;51.026;5.468;2023-04-15T08:04:14;24.45;;;10.68;;
53666;SDS011;39568;51.026;5.468;2023-04-15T08:06:41;12.32;;;10.13;;
53666;SDS011;39568;51.026;5.468;2023-04-15T08:09:08;12.68;;;9.23;;
53666;SDS011;39568;51.026;5.468;2023-04-15T08:11:35;15.07;;;9.32;;
53666;SDS011;39568;51.026;5.468;2023-04-15T08:14:01;14.38;;;9.88;;
53666;SDS011;39568;51.026;5.468;2023-04-15T08:16:29;17.83;;;10.45;;
53666;SDS011;39568;51.026;5.468;2023-04-15T08:18:56;10.98;;;8.48;;
53666;SDS011;39568;51.026;5.468;2023-04-15T08:21:23;11.38;;;8.63;;
53666;SDS011;39568;51.026;5.468;2023-04-15T08:23:52;9.70;;;8.05;;
53666;SDS011;39568;51.026;5.468;2023-04-15T08:26:19;9.95;;;7.63;;
53666;SDS011;39568;51.026;5.468;2023-04-15T08:28:46;10.93;;;8.45;;
53666;SDS011;39568;51.026;5.468;2023-04-15T08:31:13;13.45;;;8.43;;
53666;SDS011;39568;51.026;5.468;2023-04-15T08:33:41;14.90;;;7.72;;
53666;SDS011;39568;51.026;5.468;2023-04-15T08:36:08;10.77;;;7.45;;
53666;SDS011;39568;51.026;5.468;2023-04-15T08:38:35;11.43;;;7.50;;
53666;SDS011;39568;51.026;5.468;2023-04-15T08:41:03;13.70;;;7.78;;
53666;SDS011;39568;51.026;5.468;2023-04-15T08:43:39;13.48;;;7.95;;
53666;SDS011;39568;51.026;5.468;2023-04-15T08:46:12;10.05;;;7.60;;
53666;SDS011;39568;51.026;5.468;2023-04-15T08:48:42;8.55;;;6.97;;
53666;SDS011;39568;51.026;5.468;2023-04-15T08:51:09;12.52;;;7.22;;
53666;SDS011;39568;51.026;5.468;2023-04-15T08:53:40;7.70;;;7.00;;
53666;SDS011;39568;51.026;5.468;2023-04-15T08:56:07;9.13;;;7.55;;
53666;SDS011;39568;51.026;5.468;2023-04-15T08:58:35;7.07;;;6.38;;
53666;SDS011;39568;51.026;5.468;2023-04-15T09:01:02;9.90;;;6.78;;
53666;SDS011;39568;51.026;5.468;2023-04-15T09:03:28;8.50;;;7.55;;
53666;SDS011;39568;51.026;5.468;2023-04-15T09:05:57;8.73;;;6.88;;
53666;SDS011;39568;51.026;5.468;2023-04-15T09:08:24;7.55;;;6.95;;
53666;SDS011;39568;51.026;5.468;2023-04-15T09:10:51;7.15;;;6.25;;
53666;SDS011;39568;51.026;5.468;2023-04-15T09:13:19;6.65;;;6.10;;
53666;SDS011;39568;51.026;5.468;2023-04-15T09:15:46;9.57;;;6.47;;
53666;SDS011;39568;51.026;5.468;2023-04-15T09:18:12;7.07;;;6.47;;
53666;SDS011;39568;51.026;5.468;2023-04-15T09:20:51;5.43;;;5.00;;
53666;SDS011;39568;51.026;5.468;2023-04-15T09:23:20;5.60;;;5.00;;
53666;SDS011;39568;51.026;5.468;2023-04-15T09:25:47;6.18;;;5.07;;
53666;SDS011;39568;51.026;5.468;2023-04-15T09:28:14;5.65;;;4.68;;
53666;SDS011;39568;51.026;5.468;2023-04-15T09:30:50;13.60;;;5.10;;
53666;SDS011;39568;51.026;5.468;2023-04-15T09:33:17;10.35;;;4.55;;
53666;SDS011;39568;51.026;5.468;2023-04-15T09:35:49;6.20;;;4.65;;
53666;SDS011;39568;51.026;5.468;2023-04-15T09:38:23;9.43;;;5.15;;
53666;SDS011;39568;51.026;5.468;2023-04-15T09:40:50;3.88;;;3.35;;
53666;SDS011;39568;51.026;5.468;2023-04-15T09:43:16;9.23;;;3.85;;
53666;SDS011;39568;51.026;5.468;2023-04-15T09:45:46;4.03;;;3.63;;
53666;SDS011;39568;51.026;5.468;2023-04-15T09:48:14;6.63;;;4.03;;
53666;SDS011;39568;51.026;5.468;2023-04-15T09:50:42;10.75;;;3.72;;
53666;SDS011;39568;51.026;5.468;2023-04-15T09:53:10;4.38;;;3.85;;
53666;SDS011;39568;51.026;5.468;2023-04-15T09:55:38;7.65;;;3.55;;
53666;SDS011;39568;51.026;5.468;2023-04-15T09:58:07;4.28;;;3.13;;
53666;SDS011;39568;51.026;5.468;2023-04-15T10:00:35;5.05;;;3.38;;
53666;SDS011;39568;51.026;5.468;2023-04-15T10:03:04;4.57;;;3.35;;
53666;SDS011;39568;51.026;5.468;2023-04-15T10:05:31;3.55;;;2.78;;
53666;SDS011;39568;51.026;5.468;2023-04-15T10:07:59;4.13;;;2.75;;
53666;SDS011;39568;51.026;5.468;2023-04-15T10:10:28;7.90;;;3.40;;
53666;SDS011;39568;51.026;5.468;2023-04-15T10:12:56;4.07;;;3.25;;
53666;SDS011;39568;51.026;5.468;2023-04-15T10:15:23;2.65;;;2.45;;
53666;SDS011;39568;51.026;5.468;2023-04-15T10:17:50;9.93;;;2.78;;
53666;SDS011;39568;51.026;5.468;2023-04-15T10:20:19;5.40;;;3.83;;
53666;SDS011;39568;51.026;5.468;2023-04-15T10:22:47;4.38;;;3.85;;
53666;SDS011;39568;51.026;5.468;2023-04-15T10:25:14;9.23;;;4.30;;
53666;SDS011;39568;51.026;5.468;2023-04-15T10:27:41;6.35;;;3.83;;
53666;SDS011;39568;51.026;5.468;2023-04-15T10:30:10;3.88;;;3.63;;
53666;SDS011;39568;51.026;5.468;2023-04-15T10:32:37;4.15;;;3.90;;
53666;SDS011;39568;51.026;5.468;2023-04-15T10:35:05;4.22;;;3.83;;
53666;SDS011;39568;51.026;5.468;2023-04-15T10:37:34;4.88;;;3.78;;
53666;SDS011;39568;51.026;5.468;2023-04-15T10:42:50;4.43;;;4.10;;
53666;SDS011;39568;51.026;5.468;2023-04-15T10:45:18;3.42;;;2.10;;
53666;SDS011;39568;51.026;5.468;2023-04-15T10:47:45;3.85;;;3.38;;
53666;SDS011;39568;51.026;5.468;2023-04-15T10:50:11;2.65;;;2.45;;
53666;SDS011;39568;51.026;5.468;2023-04-15T10:52:39;2.25;;;2.15;;
53666;SDS011;39568;51.026;5.468;2023-04-15T10:55:11;4.93;;;2.88;;
53666;SDS011;39568;51.026;5.468;2023-04-15T10:57:40;3.20;;;3.00;;
53666;SDS011;39568;51.026;5.468;2023-04-15T11:00:11;5.40;;;3.25;;
53666;SDS011;39568;51.026;5.468;2023-04-15T11:02:44;3.55;;;3.28;;
53666;SDS011;39568;51.026;5.468;2023-04-15T11:05:12;4.43;;;4.03;;
53666;SDS011;39568;51.026;5.468;2023-04-15T11:07:40;4.10;;;3.85;;
53666;SDS011;39568;51.026;5.468;2023-04-15T11:13:19;7.10;;;2.78;;
53666;SDS011;39568;51.026;5.468;2023-04-15T11:15:48;2.65;;;2.45;;
53666;SDS011;39568;51.026;5.468;2023-04-15T11:18:18;3.47;;;3.28;;
53666;SDS011;39568;51.026;5.468;2023-04-15T11:20:46;2.80;;;1.87;;
53666;SDS011;39568;51.026;5.468;2023-04-15T11:23:14;2.10;;;1.85;;
53666;SDS011;39568;51.026;5.468;2023-04-15T11:25:42;1.60;;;1.50;;
53666;SDS011;39568;51.026;5.468;2023-04-15T11:28:10;2.58;;;2.40;;
53666;SDS011;39568;51.026;5.468;2023-04-15T11:30:38;1.15;;;0.98;;
53666;SDS011;39568;51.026;5.468;2023-04-15T11:33:06;2.33;;;2.08;;
53666;SDS011;39568;51.026;5.468;2023-04-15T11:35:35;4.00;;;1.15;;
53666;SDS011;39568;51.026;5.468;2023-04-15T11:38:02;3.15;;;1.20;;
53666;SDS011;39568;51.026;5.468;2023-04-15T11:40:30;2.20;;;1.00;;
53666;SDS011;39568;51.026;5.468;2023-04-15T11:43:02;2.97;;;1.30;;
53666;SDS011;39568;51.026;5.468;2023-04-15T11:45:30;2.10;;;1.83;;
53666;SDS011;39568;51.026;5.468;2023-04-15T11:48:03;2.55;;;1.58;;
53666;SDS011;39568;51.026;5.468;2023-04-15T11:50:31;2.53;;;2.30;;
53666;SDS011;39568;51.026;5.468;2023-04-15T11:53:01;2.28;;;2.17;;
53666;SDS011;39568;51.026;5.468;2023-04-15T12:00:46;1.20;;;1.20;;
53666;SDS011;39568;51.026;5.468;2023-04-15T12:03:18;2.63;;;2.20;;
53666;SDS011;39568;51.026;5.468;2023-04-15T12:08:50;3.13;;;1.70;;
53666;SDS011;39568;51.026;5.468;2023-04-15T12:11:35;4.20;;;2.03;;
53666;SDS011;39568;51.026;5.468;2023-04-15T12:14:07;5.15;;;1.60;;
53666;SDS011;39568;51.026;5.468;2023-04-15T12:16:37;2.70;;;1.97;;
53666;SDS011;39568;51.026;5.468;2023-04-15T12:19:06;2.95;;;1.55;;
53666;SDS011;39568;51.026;5.468;2023-04-15T12:21:36;1.75;;;1.65;;
53666;SDS011;39568;51.026;5.468;2023-04-15T12:24:05;1.95;;;1.77;;
53666;SDS011;39568;51.026;5.468;2023-04-15T12:26:34;2.92;;;2.60;;
53666;SDS011;39568;51.026;5.468;2023-04-15T12:29:02;2.40;;;2.20;;
53666;SDS011;39568;51.026;5.468;2023-04-15T12:31:31;3.45;;;1.90;;
53666;SDS011;39568;51.026;5.468;2023-04-15T12:33:57;2.40;;;1.77;;
53666;SDS011;39568;51.026;5.468;2023-04-15T12:36:25;3.75;;;1.23;;
53666;SDS011;39568;51.026;5.468;2023-04-15T12:38:52;3.15;;;1.42;;
53666;SDS011;39568;51.026;5.468;2023-04-15T12:41:21;5.07;;;1.20;;
53666;SDS011;39568;51.026;5.468;2023-04-15T12:43:48;2.75;;;1.20;;
53666;SDS011;39568;51.026;5.468;2023-04-15T12:46:15;1.50;;;1.40;;
53666;SDS011;39568;51.026;5.468;2023-04-15T12:48:41;1.17;;;1.13;;
53666;SDS011;39568;51.026;5.468;2023-04-15T12:51:08;1.77;;;1.23;;
53666;SDS011;39568;51.026;5.468;2023-04-15T12:53:35;3.72;;;1.38;;
53666;SDS011;39568;51.026;5.468;2023-04-15T12:56:01;2.33;;;1.20;;
53666;SDS011;39568;51.026;5.468;2023-04-15T12:58:30;2.78;;;1.50;;
53666;SDS011;39568;51.026;5.468;2023-04-15T13:00:56;3.05;;;1.20;;
53666;SDS011;39568;51.026;5.468;2023-04-15T13:03:23;1.20;;;1.20;;
53666;SDS011;39568;51.026;5.468;2023-04-15T13:05:49;1.58;;;1.50;;
53666;SDS011;39568;51.026;5.468;2023-04-15T13:08:17;3.03;;;1.63;;
53666;SDS011;39568;51.026;5.468;2023-04-15T13:10:44;2.22;;;1.10;;
53666;SDS011;39568;51.026;5.468;2023-04-15T13:13:11;1.42;;;1.33;;
53666;SDS011;39568;51.026;5.468;2023-04-15T13:15:39;2.40;;;1.52;;
53666;SDS011;39568;51.026;5.468;2023-04-15T13:18:06;2.70;;;2.10;;
53666;SDS011;39568;51.026;5.468;2023-04-15T13:20:33;1.48;;;1.38;;
53666;SDS011;39568;51.026;5.468;2023-04-15T13:23:00;6.82;;;1.55;;
53666;SDS011;39568;51.026;5.468;2023-04-15T13:25:27;1.83;;;1.27;;
53666;SDS011;39568;51.026;5.468;2023-04-15T13:27:53;4.63;;;1.50;;
53666;SDS011;39568;51.026;5.468;2023-04-15T13:30:21;5.63;;;2.40;;
53666;SDS011;39568;51.026;5.468;2023-04-15T13:32:49;3.05;;;2.03;;
53666;SDS011;39568;51.026;5.468;2023-04-15T13:35:18;3.47;;;1.40;;
53666;SDS011;39568;51.026;5.468;2023-04-15T13:37:44;2.25;;;1.85;;
53666;SDS011;39568;51.026;5.468;2023-04-15T13:40:11;1.00;;;1.00;;
53666;SDS011;39568;51.026;5.468;2023-04-15T13:42:38;1.08;;;1.08;;
53666;SDS011;39568;51.026;5.468;2023-04-15T13:45:05;1.70;;;1.60;;
53666;SDS011;39568;51.026;5.468;2023-04-15T13:47:32;1.85;;;1.70;;
53666;SDS011;39568;51.026;5.468;2023-04-15T13:50:01;5.43;;;1.50;;
53666;SDS011;39568;51.026;5.468;2023-04-15T13:52:27;1.58;;;1.48;;
53666;SDS011;39568;51.026;5.468;2023-04-15T13:54:54;1.48;;;1.38;;
53666;SDS011;39568;51.026;5.468;2023-04-15T13:57:21;6.85;;;1.00;;
53666;SDS011;39568;51.026;5.468;2023-04-15T13:59:47;1.55;;;1.45;;
53666;SDS011;39568;51.026;5.468;2023-04-15T14:02:14;1.67;;;1.25;;
53666;SDS011;39568;51.026;5.468;2023-04-15T14:04:41;3.10;;;1.70;;
53666;SDS011;39568;51.026;5.468;2023-04-15T14:07:15;3.35;;;1.85;;
53666;SDS011;39568;51.026;5.468;2023-04-15T14:09:42;3.60;;;1.90;;
53666;SDS011;39568;51.026;5.468;2023-04-15T14:12:09;1.17;;;1.17;;
53666;SDS011;39568;51.026;5.468;2023-04-15T14:14:36;1.98;;;1.63;;
53666;SDS011;39568;51.026;5.468;2023-04-15T14:17:02;2.35;;;1.33;;
53666;SDS011;39568;51.026;5.468;2023-04-15T14:19:29;3.83;;;1.27;;
53666;SDS011;39568;51.026;5.468;2023-04-15T14:21:56;2.55;;;1.67;;
53666;SDS011;39568;51.026;5.468;2023-04-15T14:24:24;2.58;;;1.05;;
53666;SDS011;39568;51.026;5.468;2023-04-15T14:26:51;1.52;;;1.42;;
53666;SDS011;39568;51.026;5.468;2023-04-15T14:29:18;1.23;;;1.05;;
53666;SDS011;39568;51.026;5.468;2023-04-15T14:31:45;4.13;;;1.35;;
53666;SDS011;39568;51.026;5.468;2023-04-15T14:34:12;1.50;;;1.00;;
53666;SDS011;39568;51.026;5.468;2023-04-15T14:36:39;1.33;;;1.23;;
53666;SDS011;39568;51.026;5.468;2023-04-15T14:39:06;1.50;;;1.10;;
53666;SDS011;39568;51.026;5.468;2023-04-15T14:41:35;1.55;;;1.38;;
53666;SDS011;39568;51.026;5.468;2023-04-15T14:44:02;1.70;;;1.25;;
53666;SDS011;39568;51.026;5.468;2023-04-15T14:46:28;1.55;;;1.20;;
53666;SDS011;39568;51.026;5.468;2023-04-15T14:48:55;2.45;;;0.82;;
53666;SDS011;39568;51.026;5.468;2023-04-15T14:51:22;1.13;;;1.02;;
53666;SDS011;39568;51.026;5.468;2023-04-15T14:53:49;3.83;;;0.82;;
53666;SDS011;39568;51.026;5.468;2023-04-15T14:56:15;1.00;;;0.85;;